sensor_id;sensor_type;location;lat;lon;timestamp;temperature;humidity
77039;DHT22;65970;50.476;4.840;2024-03-08T00:04:00;8.20;30.00
77039;DHT22;65970;50.476;4.840;2024-03-08T00:09:01;8.20;30.10
77039;DHT22;65970;50.476;4.840;2024-03-08T00:14:01;8.20;30.10
77039;DHT22;65970;50.476;4.840;2024-03-08T00:19:02;8.10;30.70
77039;DHT22;65970;50.476;4.840;2024-03-08T00:24:02;8.10;30.80
77039;DHT22;65970;50.476;4.840;2024-03-08T00:29:03;8.00;30.90
77039;DHT22;65970;50.476;4.840;2024-03-08T00:34:04;8.00;30.90
77039;DHT22;65970;50.476;4.840;2024-03-08T00:39:04;8.00;31.70
77039;DHT22;65970;50.476;4.840;2024-03-08T00:44:05;7.90;31.30
77039;DHT22;65970;50.476;4.840;2024-03-08T00:49:05;7.90;30.80
77039;DHT22;65970;50.476;4.840;2024-03-08T00:54:06;7.90;31.10
77039;DHT22;65970;50.476;4.840;2024-03-08T00:59:07;7.80;30.80
77039;DHT22;65970;50.476;4.840;2024-03-08T01:04:07;7.80;31.40
77039;DHT22;65970;50.476;4.840;2024-03-08T01:09:08;7.80;31.10
77039;DHT22;65970;50.476;4.840;2024-03-08T01:14:09;7.70;31.40
77039;DHT22;65970;50.476;4.840;2024-03-08T01:19:09;7.70;31.70
77039;DHT22;65970;50.476;4.840;2024-03-08T01:24:10;7.70;30.80
77039;DHT22;65970;50.476;4.840;2024-03-08T01:29:11;7.60;32.40
77039;DHT22;65970;50.476;4.840;2024-03-08T01:34:11;7.60;31.90
77039;DHT22;65970;50.476;4.840;2024-03-08T01:39:12;7.50;32.50
77039;DHT22;65970;50.476;4.840;2024-03-08T01:44:12;7.50;32.20
77039;DHT22;65970;50.476;4.840;2024-03-08T01:49:13;7.50;32.20
77039;DHT22;65970;50.476;4.840;2024-03-08T01:54:15;7.50;32.90
77039;DHT22;65970;50.476;4.840;2024-03-08T01:59:17;7.40;32.50
77039;DHT22;65970;50.476;4.840;2024-03-08T02:04:17;7.40;32.90
77039;DHT22;65970;50.476;4.840;2024-03-08T02:09:18;7.40;33.10
77039;DHT22;65970;50.476;4.840;2024-03-08T02:14:19;7.30;32.20
77039;DHT22;65970;50.476;4.840;2024-03-08T02:19:19;7.30;32.60
77039;DHT22;65970;50.476;4.840;2024-03-08T02:24:20;7.30;32.10
77039;DHT22;65970;50.476;4.840;2024-03-08T02:29:20;7.20;32.40
77039;DHT22;65970;50.476;4.840;2024-03-08T02:34:21;7.20;32.40
77039;DHT22;65970;50.476;4.840;2024-03-08T02:39:22;7.20;32.60
77039;DHT22;65970;50.476;4.840;2024-03-08T02:44:22;7.10;33.00
77039;DHT22;65970;50.476;4.840;2024-03-08T02:49:23;7.10;33.00
77039;DHT22;65970;50.476;4.840;2024-03-08T02:54:23;7.10;32.80
77039;DHT22;65970;50.476;4.840;2024-03-08T02:59:24;7.00;33.40
77039;DHT22;65970;50.476;4.840;2024-03-08T03:04:24;7.00;33.60
77039;DHT22;65970;50.476;4.840;2024-03-08T03:09:25;7.00;33.20
77039;DHT22;65970;50.476;4.840;2024-03-08T03:14:25;6.90;33.30
77039;DHT22;65970;50.476;4.840;2024-03-08T03:19:26;6.90;33.50
77039;DHT22;65970;50.476;4.840;2024-03-08T03:24:26;6.90;33.70
77039;DHT22;65970;50.476;4.840;2024-03-08T03:29:27;6.90;33.60
77039;DHT22;65970;50.476;4.840;2024-03-08T03:34:28;6.80;33.50
77039;DHT22;65970;50.476;4.840;2024-03-08T03:39:29;6.80;33.80
77039;DHT22;65970;50.476;4.840;2024-03-08T03:44:29;6.70;33.50
77039;DHT22;65970;50.476;4.840;2024-03-08T03:49:30;6.70;33.70
77039;DHT22;65970;50.476;4.840;2024-03-08T03:54:30;6.70;33.90
77039;DHT22;65970;50.476;4.840;2024-03-08T03:59:31;6.60;34.20
77039;DHT22;65970;50.476;4.840;2024-03-08T04:04:32;6.60;33.70
77039;DHT22;65970;50.476;4.840;2024-03-08T04:09:35;6.50;33.40
77039;DHT22;65970;50.476;4.840;2024-03-08T04:14:36;6.50;34.00
77039;DHT22;65970;50.476;4.840;2024-03-08T04:19:36;6.50;33.10
77039;DHT22;65970;50.476;4.840;2024-03-08T04:24:37;6.40;33.70
77039;DHT22;65970;50.476;4.840;2024-03-08T04:29:37;6.40;34.10
77039;DHT22;65970;50.476;4.840;2024-03-08T04:34:38;6.40;33.70
77039;DHT22;65970;50.476;4.840;2024-03-08T04:39:38;6.30;34.30
77039;DHT22;65970;50.476;4.840;2024-03-08T04:44:39;6.30;34.50
77039;DHT22;65970;50.476;4.840;2024-03-08T04:49:39;6.30;34.60
77039;DHT22;65970;50.476;4.840;2024-03-08T04:54:40;6.30;34.30
77039;DHT22;65970;50.476;4.840;2024-03-08T04:59:41;6.20;34.70
77039;DHT22;65970;50.476;4.840;2024-03-08T05:04:41;6.20;34.80
77039;DHT22;65970;50.476;4.840;2024-03-08T05:09:42;6.20;34.70
77039;DHT22;65970;50.476;4.840;2024-03-08T05:14:42;6.10;34.50
77039;DHT22;65970;50.476;4.840;2024-03-08T05:19:43;6.10;34.80
77039;DHT22;65970;50.476;4.840;2024-03-08T05:24:43;6.10;35.00
77039;DHT22;65970;50.476;4.840;2024-03-08T05:29:44;6.00;34.60
77039;DHT22;65970;50.476;4.840;2024-03-08T05:34:44;6.00;34.50
77039;DHT22;65970;50.476;4.840;2024-03-08T05:39:45;6.00;34.60
77039;DHT22;65970;50.476;4.840;2024-03-08T05:44:45;6.00;34.80
77039;DHT22;65970;50.476;4.840;2024-03-08T05:49:46;5.90;34.70
77039;DHT22;65970;50.476;4.840;2024-03-08T05:54:47;5.90;35.10
77039;DHT22;65970;50.476;4.840;2024-03-08T05:59:47;5.90;35.30
77039;DHT22;65970;50.476;4.840;2024-03-08T06:04:48;5.90;35.30
77039;DHT22;65970;50.476;4.840;2024-03-08T06:09:48;5.80;35.00
77039;DHT22;65970;50.476;4.840;2024-03-08T06:14:49;5.80;35.00
77039;DHT22;65970;50.476;4.840;2024-03-08T06:19:49;5.80;35.10
77039;DHT22;65970;50.476;4.840;2024-03-08T06:24:50;5.70;34.80
77039;DHT22;65970;50.476;4.840;2024-03-08T06:29:50;5.70;34.80
77039;DHT22;65970;50.476;4.840;2024-03-08T06:34:51;5.70;34.80
77039;DHT22;65970;50.476;4.840;2024-03-08T06:39:51;5.70;35.20
77039;DHT22;65970;50.476;4.840;2024-03-08T06:44:52;5.60;35.00
77039;DHT22;65970;50.476;4.840;2024-03-08T06:49:52;5.60;35.10
77039;DHT22;65970;50.476;4.840;2024-03-08T06:54:53;5.60;35.40
77039;DHT22;65970;50.476;4.840;2024-03-08T06:59:54;5.60;35.30
77039;DHT22;65970;50.476;4.840;2024-03-08T07:04:54;5.50;35.60
77039;DHT22;65970;50.476;4.840;2024-03-08T07:09:55;5.50;35.70
77039;DHT22;65970;50.476;4.840;2024-03-08T07:14:55;5.50;35.70
77039;DHT22;65970;50.476;4.840;2024-03-08T07:19:56;5.50;35.80
77039;DHT22;65970;50.476;4.840;2024-03-08T07:24:56;5.40;36.00
77039;DHT22;65970;50.476;4.840;2024-03-08T07:29:57;5.40;36.10
77039;DHT22;65970;50.476;4.840;2024-03-08T07:34:57;5.40;36.20
77039;DHT22;65970;50.476;4.840;2024-03-08T07:39:58;5.40;36.20
77039;DHT22;65970;50.476;4.840;2024-03-08T07:44:58;5.40;36.30
77039;DHT22;65970;50.476;4.840;2024-03-08T07:49:59;5.40;36.50
77039;DHT22;65970;50.476;4.840;2024-03-08T07:55:00;5.30;36.60
77039;DHT22;65970;50.476;4.840;2024-03-08T08:00:00;5.40;36.70
77039;DHT22;65970;50.476;4.840;2024-03-08T08:05:01;5.40;36.70
77039;DHT22;65970;50.476;4.840;2024-03-08T08:10:02;5.40;36.50
77039;DHT22;65970;50.476;4.840;2024-03-08T08:15:03;5.40;36.60
77039;DHT22;65970;50.476;4.840;2024-03-08T08:20:04;5.40;35.40
77039;DHT22;65970;50.476;4.840;2024-03-08T08:25:05;5.50;37.00
77039;DHT22;65970;50.476;4.840;2024-03-08T08:30:06;5.50;36.90
77039;DHT22;65970;50.476;4.840;2024-03-08T08:35:07;5.50;37.00
77039;DHT22;65970;50.476;4.840;2024-03-08T08:40:08;5.60;37.00
77039;DHT22;65970;50.476;4.840;2024-03-08T08:45:09;5.60;36.80
77039;DHT22;65970;50.476;4.840;2024-03-08T08:50:10;5.60;36.80
77039;DHT22;65970;50.476;4.840;2024-03-08T08:55:11;5.70;36.80
77039;DHT22;65970;50.476;4.840;2024-03-08T09:00:14;5.80;36.80
77039;DHT22;65970;50.476;4.840;2024-03-08T09:05:15;5.80;36.70
77039;DHT22;65970;50.476;4.840;2024-03-08T09:10:16;5.90;36.70
77039;DHT22;65970;50.476;4.840;2024-03-08T09:15:16;6.00;36.60
77039;DHT22;65970;50.476;4.840;2024-03-08T09:20:17;6.10;36.70
77039;DHT22;65970;50.476;4.840;2024-03-08T09:25:17;6.20;36.70
77039;DHT22;65970;50.476;4.840;2024-03-08T09:30:18;6.30;37.00
77039;DHT22;65970;50.476;4.840;2024-03-08T09:35:19;6.40;36.90
77039;DHT22;65970;50.476;4.840;2024-03-08T09:40:19;6.40;36.80
77039;DHT22;65970;50.476;4.840;2024-03-08T09:45:20;6.60;37.00
77039;DHT22;65970;50.476;4.840;2024-03-08T09:50:21;6.60;37.00
77039;DHT22;65970;50.476;4.840;2024-03-08T09:55:22;6.80;36.90
77039;DHT22;65970;50.476;4.840;2024-03-08T10:00:23;6.80;36.60
77039;DHT22;65970;50.476;4.840;2024-03-08T10:05:23;6.90;36.70
77039;DHT22;65970;50.476;4.840;2024-03-08T10:10:24;7.00;36.80
77039;DHT22;65970;50.476;4.840;2024-03-08T10:15:27;7.10;36.90
77039;DHT22;65970;50.476;4.840;2024-03-08T10:20:32;7.20;37.10
77039;DHT22;65970;50.476;4.840;2024-03-08T10:25:34;7.20;37.00
77039;DHT22;65970;50.476;4.840;2024-03-08T10:30:35;7.40;37.20
77039;DHT22;65970;50.476;4.840;2024-03-08T10:35:35;7.50;37.30
77039;DHT22;65970;50.476;4.840;2024-03-08T10:40:38;7.50;37.40
77039;DHT22;65970;50.476;4.840;2024-03-08T10:45:39;7.60;37.60
77039;DHT22;65970;50.476;4.840;2024-03-08T10:50:40;7.70;37.50
77039;DHT22;65970;50.476;4.840;2024-03-08T10:55:42;7.80;37.80
77039;DHT22;65970;50.476;4.840;2024-03-08T11:00:44;7.90;37.90
77039;DHT22;65970;50.476;4.840;2024-03-08T11:05:44;8.00;37.80
77039;DHT22;65970;50.476;4.840;2024-03-08T11:10:53;8.10;37.80
77039;DHT22;65970;50.476;4.840;2024-03-08T11:15:54;8.20;38.00
77039;DHT22;65970;50.476;4.840;2024-03-08T11:20:55;8.30;38.30
77039;DHT22;65970;50.476;4.840;2024-03-08T11:25:55;8.40;38.40
77039;DHT22;65970;50.476;4.840;2024-03-08T11:36:23;8.50;38.80
77039;DHT22;65970;50.476;4.840;2024-03-08T11:41:24;8.70;39.00
77039;DHT22;65970;50.476;4.840;2024-03-08T11:46:25;8.70;39.20
77039;DHT22;65970;50.476;4.840;2024-03-08T11:51:27;8.80;39.20
77039;DHT22;65970;50.476;4.840;2024-03-08T11:56:27;8.90;39.50
77039;DHT22;65970;50.476;4.840;2024-03-08T12:01:29;9.00;39.60
77039;DHT22;65970;50.476;4.840;2024-03-08T12:06:40;9.10;39.70
77039;DHT22;65970;50.476;4.840;2024-03-08T12:11:40;9.10;39.90
77039;DHT22;65970;50.476;4.840;2024-03-08T12:16:42;9.20;40.00
77039;DHT22;65970;50.476;4.840;2024-03-08T12:21:42;9.30;40.10
77039;DHT22;65970;50.476;4.840;2024-03-08T12:26:43;9.40;40.10
77039;DHT22;65970;50.476;4.840;2024-03-08T12:31:43;9.50;40.40
77039;DHT22;65970;50.476;4.840;2024-03-08T12:36:51;9.60;40.60
77039;DHT22;65970;50.476;4.840;2024-03-08T12:41:53;9.60;40.60
77039;DHT22;65970;50.476;4.840;2024-03-08T12:46:54;9.70;40.80
77039;DHT22;65970;50.476;4.840;2024-03-08T12:51:54;9.90;41.00
77039;DHT22;65970;50.476;4.840;2024-03-08T12:56:55;9.90;41.10
77039;DHT22;65970;50.476;4.840;2024-03-08T13:01:55;10.00;41.30
77039;DHT22;65970;50.476;4.840;2024-03-08T13:06:56;10.10;41.40
77039;DHT22;65970;50.476;4.840;2024-03-08T13:11:57;10.20;41.50
77039;DHT22;65970;50.476;4.840;2024-03-08T13:16:58;10.30;41.70
77039;DHT22;65970;50.476;4.840;2024-03-08T13:21:58;10.40;41.70
77039;DHT22;65970;50.476;4.840;2024-03-08T13:26:59;10.50;42.00
77039;DHT22;65970;50.476;4.840;2024-03-08T13:32:00;10.50;41.90
77039;DHT22;65970;50.476;4.840;2024-03-08T13:37:00;10.60;42.10
77039;DHT22;65970;50.476;4.840;2024-03-08T13:42:01;10.70;42.30
77039;DHT22;65970;50.476;4.840;2024-03-08T13:47:02;10.80;42.40
77039;DHT22;65970;50.476;4.840;2024-03-08T13:52:03;10.90;42.50
77039;DHT22;65970;50.476;4.840;2024-03-08T13:57:06;11.00;42.60
77039;DHT22;65970;50.476;4.840;2024-03-08T14:02:06;11.10;42.80
77039;DHT22;65970;50.476;4.840;2024-03-08T14:07:07;11.20;43.00
77039;DHT22;65970;50.476;4.840;2024-03-08T14:12:08;11.20;43.10
77039;DHT22;65970;50.476;4.840;2024-03-08T14:17:08;11.30;43.40
77039;DHT22;65970;50.476;4.840;2024-03-08T14:22:09;11.40;43.50
77039;DHT22;65970;50.476;4.840;2024-03-08T14:27:10;11.50;43.90
77039;DHT22;65970;50.476;4.840;2024-03-08T14:32:10;11.50;43.90
77039;DHT22;65970;50.476;4.840;2024-03-08T14:37:11;11.60;44.00
77039;DHT22;65970;50.476;4.840;2024-03-08T14:42:12;11.70;44.20
77039;DHT22;65970;50.476;4.840;2024-03-08T14:47:12;11.70;44.30
77039;DHT22;65970;50.476;4.840;2024-03-08T14:52:13;11.80;44.50
77039;DHT22;65970;50.476;4.840;2024-03-08T14:57:13;11.90;44.50
77039;DHT22;65970;50.476;4.840;2024-03-08T15:02:14;11.90;44.70
77039;DHT22;65970;50.476;4.840;2024-03-08T15:07:14;12.00;44.70
77039;DHT22;65970;50.476;4.840;2024-03-08T15:12:15;12.00;44.70
77039;DHT22;65970;50.476;4.840;2024-03-08T15:17:15;12.00;44.80
77039;DHT22;65970;50.476;4.840;2024-03-08T15:22:16;12.10;44.90
77039;DHT22;65970;50.476;4.840;2024-03-08T15:27:16;12.10;45.20
77039;DHT22;65970;50.476;4.840;2024-03-08T15:32:17;12.20;45.20
77039;DHT22;65970;50.476;4.840;2024-03-08T15:37:18;12.20;45.40
77039;DHT22;65970;50.476;4.840;2024-03-08T15:42:18;12.20;45.30
77039;DHT22;65970;50.476;4.840;2024-03-08T15:47:19;12.20;45.40
77039;DHT22;65970;50.476;4.840;2024-03-08T15:52:19;12.30;45.50
77039;DHT22;65970;50.476;4.840;2024-03-08T15:57:20;12.30;45.50
77039;DHT22;65970;50.476;4.840;2024-03-08T16:02:20;12.30;45.60
77039;DHT22;65970;50.476;4.840;2024-03-08T16:07:21;12.30;45.80
77039;DHT22;65970;50.476;4.840;2024-03-08T16:12:21;12.30;45.90
77039;DHT22;65970;50.476;4.840;2024-03-08T16:17:22;12.30;45.80
77039;DHT22;65970;50.476;4.840;2024-03-08T16:22:22;12.30;45.50
77039;DHT22;65970;50.476;4.840;2024-03-08T16:27:23;12.30;45.10
77039;DHT22;65970;50.476;4.840;2024-03-08T16:32:24;12.30;45.00
77039;DHT22;65970;50.476;4.840;2024-03-08T16:37:24;12.40;45.10
77039;DHT22;65970;50.476;4.840;2024-03-08T16:42:25;12.40;45.10
77039;DHT22;65970;50.476;4.840;2024-03-08T16:47:25;12.40;45.10
77039;DHT22;65970;50.476;4.840;2024-03-08T16:52:26;12.40;44.90
77039;DHT22;65970;50.476;4.840;2024-03-08T16:57:27;12.30;44.90
77039;DHT22;65970;50.476;4.840;2024-03-08T17:02:27;12.30;44.70
77039;DHT22;65970;50.476;4.840;2024-03-08T17:07:28;12.30;44.40
77039;DHT22;65970;50.476;4.840;2024-03-08T17:12:28;12.30;44.40
77039;DHT22;65970;50.476;4.840;2024-03-08T17:17:29;12.30;43.80
77039;DHT22;65970;50.476;4.840;2024-03-08T17:22:29;12.30;43.70
77039;DHT22;65970;50.476;4.840;2024-03-08T17:27:30;12.30;44.20
77039;DHT22;65970;50.476;4.840;2024-03-08T17:32:31;12.30;44.30
77039;DHT22;65970;50.476;4.840;2024-03-08T17:37:31;12.30;44.00
77039;DHT22;65970;50.476;4.840;2024-03-08T17:42:32;12.30;42.60
77039;DHT22;65970;50.476;4.840;2024-03-08T17:47:32;12.20;42.00
77039;DHT22;65970;50.476;4.840;2024-03-08T17:52:33;12.20;41.40
77039;DHT22;65970;50.476;4.840;2024-03-08T17:57:33;12.20;42.00
77039;DHT22;65970;50.476;4.840;2024-03-08T18:02:34;12.20;40.90
77039;DHT22;65970;50.476;4.840;2024-03-08T18:07:34;12.20;41.60
77039;DHT22;65970;50.476;4.840;2024-03-08T18:12:35;12.10;42.10
77039;DHT22;65970;50.476;4.840;2024-03-08T18:17:35;12.10;38.80
77039;DHT22;65970;50.476;4.840;2024-03-08T18:22:36;12.10;39.80
77039;DHT22;65970;50.476;4.840;2024-03-08T18:27:36;12.00;40.10
77039;DHT22;65970;50.476;4.840;2024-03-08T18:32:37;12.00;38.90
77039;DHT22;65970;50.476;4.840;2024-03-08T18:37:39;12.00;40.30
77039;DHT22;65970;50.476;4.840;2024-03-08T18:42:40;12.00;40.90
77039;DHT22;65970;50.476;4.840;2024-03-08T18:47:42;11.90;35.40
77039;DHT22;65970;50.476;4.840;2024-03-08T18:52:44;11.90;35.70
77039;DHT22;65970;50.476;4.840;2024-03-08T18:57:45;11.90;35.70
77039;DHT22;65970;50.476;4.840;2024-03-08T19:02:45;11.80;33.50
77039;DHT22;65970;50.476;4.840;2024-03-08T19:07:47;11.80;32.90
77039;DHT22;65970;50.476;4.840;2024-03-08T19:12:49;11.80;32.70
77039;DHT22;65970;50.476;4.840;2024-03-08T19:17:52;11.80;33.40
77039;DHT22;65970;50.476;4.840;2024-03-08T19:22:57;11.80;32.70
77039;DHT22;65970;50.476;4.840;2024-03-08T19:28:05;11.70;32.60
77039;DHT22;65970;50.476;4.840;2024-03-08T19:33:07;11.70;31.90
77039;DHT22;65970;50.476;4.840;2024-03-08T19:38:08;11.70;31.80
77039;DHT22;65970;50.476;4.840;2024-03-08T19:43:09;11.60;31.30
77039;DHT22;65970;50.476;4.840;2024-03-08T19:48:10;11.60;31.70
77039;DHT22;65970;50.476;4.840;2024-03-08T19:53:11;11.60;29.70
77039;DHT22;65970;50.476;4.840;2024-03-08T19:58:12;11.60;30.20
77039;DHT22;65970;50.476;4.840;2024-03-08T20:03:12;11.50;30.00
77039;DHT22;65970;50.476;4.840;2024-03-08T20:08:13;11.50;30.00
77039;DHT22;65970;50.476;4.840;2024-03-08T20:13:13;11.50;28.60
77039;DHT22;65970;50.476;4.840;2024-03-08T20:18:14;11.50;29.20
77039;DHT22;65970;50.476;4.840;2024-03-08T20:23:14;11.40;28.90
77039;DHT22;65970;50.476;4.840;2024-03-08T20:28:16;11.40;28.30
77039;DHT22;65970;50.476;4.840;2024-03-08T20:33:17;11.40;28.10
77039;DHT22;65970;50.476;4.840;2024-03-08T20:38:18;11.40;27.80
77039;DHT22;65970;50.476;4.840;2024-03-08T20:43:18;11.30;27.80
77039;DHT22;65970;50.476;4.840;2024-03-08T20:48:19;11.30;28.10
77039;DHT22;65970;50.476;4.840;2024-03-08T20:53:19;11.30;27.60
77039;DHT22;65970;50.476;4.840;2024-03-08T20:58:21;11.30;27.80
77039;DHT22;65970;50.476;4.840;2024-03-08T21:03:22;11.20;27.10
77039;DHT22;65970;50.476;4.840;2024-03-08T21:08:22;11.20;27.10
77039;DHT22;65970;50.476;4.840;2024-03-08T21:13:23;11.20;27.00
77039;DHT22;65970;50.476;4.840;2024-03-08T21:18:24;11.20;26.20
77039;DHT22;65970;50.476;4.840;2024-03-08T21:23:24;11.10;26.10
77039;DHT22;65970;50.476;4.840;2024-03-08T21:28:25;11.10;26.10
77039;DHT22;65970;50.476;4.840;2024-03-08T21:33:26;11.00;26.20
77039;DHT22;65970;50.476;4.840;2024-03-08T21:38:26;11.00;26.10
77039;DHT22;65970;50.476;4.840;2024-03-08T21:43:27;11.00;26.30
77039;DHT22;65970;50.476;4.840;2024-03-08T21:48:27;11.00;26.30
77039;DHT22;65970;50.476;4.840;2024-03-08T21:53:28;10.90;26.50
77039;DHT22;65970;50.476;4.840;2024-03-08T21:58:29;10.90;27.40
77039;DHT22;65970;50.476;4.840;2024-03-08T22:03:29;10.90;26.70
77039;DHT22;65970;50.476;4.840;2024-03-08T22:08:30;10.90;26.60
77039;DHT22;65970;50.476;4.840;2024-03-08T22:13:30;10.90;26.70
77039;DHT22;65970;50.476;4.840;2024-03-08T22:18:31;10.80;26.80
77039;DHT22;65970;50.476;4.840;2024-03-08T22:23:31;10.90;26.70
77039;DHT22;65970;50.476;4.840;2024-03-08T22:28:32;10.80;26.60
77039;DHT22;65970;50.476;4.840;2024-03-08T22:33:32;10.80;26.50
77039;DHT22;65970;50.476;4.840;2024-03-08T22:38:33;10.80;26.20
77039;DHT22;65970;50.476;4.840;2024-03-08T22:43:34;10.80;26.40
77039;DHT22;65970;50.476;4.840;2024-03-08T22:48:34;10.80;25.80
77039;DHT22;65970;50.476;4.840;2024-03-08T22:53:35;10.80;26.40
77039;DHT22;65970;50.476;4.840;2024-03-08T22:58:36;10.70;26.50
77039;DHT22;65970;50.476;4.840;2024-03-08T23:03:36;10.70;26.50
77039;DHT22;65970;50.476;4.840;2024-03-08T23:08:38;10.70;26.80
77039;DHT22;65970;50.476;4.840;2024-03-08T23:13:39;10.70;26.70
77039;DHT22;65970;50.476;4.840;2024-03-08T23:18:39;10.70;26.60
77039;DHT22;65970;50.476;4.840;2024-03-08T23:23:40;10.70;27.50
77039;DHT22;65970;50.476;4.840;2024-03-08T23:28:40;10.70;27.00
77039;DHT22;65970;50.476;4.840;2024-03-08T23:33:41;10.70;27.50
77039;DHT22;65970;50.476;4.840;2024-03-08T23:38:42;10.60;27.50
77039;DHT22;65970;50.476;4.840;2024-03-08T23:43:42;10.60;27.40
77039;DHT22;65970;50.476;4.840;2024-03-08T23:48:43;10.60;27.40
77039;DHT22;65970;50.476;4.840;2024-03-08T23:53:43;10.60;27.10
77039;DHT22;65970;50.476;4.840;2024-03-08T23:58:44;10.60;27.50
